Time;durP1;ratioP1;P1;durP2;ratioP2;P2;SDS_P1;SDS_P2;PMS_P1;PMS_P2;Temp;Humidity;BMP_temperature;BMP_pressure;BME280_temperature;BME280_humidity;BME280_pressure;Samples;Min_cycle;Max_cycle;Signal;HPM_P1;HPM_P2
2022/10/18 00:01:50;;;;;;;24.77;13.70;;;;;;;9.13;58.77;96799.16;5074865;28;20044;-77
2022/10/18 00:04:16;;;;;;;30.00;14.20;;;;;;;8.72;59.32;96747.78;5055144;28;20044;-77
2022/10/18 00:06:41;;;;;;;30.27;13.88;;;;;;;8.79;59.29;96753.78;5074750;28;20044;-78
2022/10/18 00:09:07;;;;;;;28.95;13.07;;;;;;;8.68;58.81;96725.47;5055847;28;20521;-78
2022/10/18 00:11:32;;;;;;;29.20;13.70;;;;;;;8.99;59.01;96798.53;5073615;28;20040;-78
2022/10/18 00:13:58;;;;;;;35.22;14.38;;;;;;;8.67;59.08;96737.06;5074068;28;20067;-78
2022/10/18 00:16:24;;;;;;;29.45;14.73;;;;;;;8.72;59.44;96739.03;5055764;28;20430;-77
2022/10/18 00:18:49;;;;;;;31.85;14.57;;;;;;;8.92;59.74;96781.94;5055780;28;20426;-76
2022/10/18 00:21:20;;;;;;;29.95;13.82;;;;;;;8.90;59.91;96773.41;5073712;28;20381;-76
2022/10/18 00:23:47;;;;;;;36.40;14.25;;;;;;;8.88;60.06;96768.34;5073630;28;20083;-76
2022/10/18 00:26:18;;;;;;;35.42;15.25;;;;;;;8.88;60.02;96770.16;5074014;28;20046;-76
2022/10/18 00:28:45;;;;;;;31.92;14.40;;;;;;;8.85;60.35;96768.78;5056413;28;20035;-76
2022/10/18 00:31:16;;;;;;;30.48;13.93;;;;;;;8.35;60.10;96694.16;5074271;28;20036;-77
2022/10/18 00:33:44;;;;;;;38.53;14.93;;;;;;;8.76;60.33;96756.09;5071996;28;20040;-77
2022/10/18 00:36:10;;;;;;;32.70;15.63;;;;;;;8.04;60.09;96647.53;5073985;28;20095;-76
2022/10/18 00:38:36;;;;;;;26.60;15.27;;;;;;;8.73;60.26;96757.34;5072212;28;20040;-76
2022/10/18 00:41:04;;;;;;;30.52;15.30;;;;;;;8.75;60.79;96755.28;5055524;28;20090;-76
2022/10/18 00:43:29;;;;;;;30.33;15.57;;;;;;;8.27;60.95;96677.75;5055482;28;20040;-77
2022/10/18 00:45:55;;;;;;;27.90;15.13;;;;;;;8.19;60.47;96670.13;5074613;28;20055;-77
2022/10/18 00:48:20;;;;;;;29.30;15.50;;;;;;;8.05;60.35;96649.16;5058312;28;20028;-76
2022/10/18 00:50:49;;;;;;;32.88;15.45;;;;;;;8.64;60.61;96737.50;5077073;28;20493;-76
2022/10/18 00:53:17;;;;;;;41.45;15.88;;;;;;;8.68;60.78;96748.47;5077421;28;20044;-76
2022/10/18 00:55:43;;;;;;;38.08;16.00;;;;;;;8.37;61.10;96692.09;5058533;28;20159;-76
2022/10/18 00:58:12;;;;;;;38.50;16.65;;;;;;;8.54;60.78;96729.31;5058517;28;20040;-77
2022/10/18 01:00:39;;;;;;;28.77;15.88;;;;;;;8.46;60.95;96714.56;5077150;28;20028;-77
2022/10/18 01:03:06;;;;;;;32.08;16.10;;;;;;;8.16;60.77;96670.59;5058684;28;20039;-77
2022/10/18 01:05:32;;;;;;;34.63;15.82;;;;;;;8.61;61.34;96745.09;5077470;28;20039;-77
2022/10/18 01:08:15;;;;;;;31.13;15.55;;;;;;;7.82;61.23;96630.53;5059138;28;20036;-77
2022/10/18 01:10:40;;;;;;;32.10;15.63;;;;;;;8.51;61.36;96740.31;5058833;28;20028;-76
2022/10/18 01:13:30;;;;;;;36.45;16.25;;;;;;;8.46;61.50;96733.06;5058286;28;20064;-76
2022/10/18 01:16:01;;;;;;;31.48;16.42;;;;;;;8.45;61.47;96734.09;5058573;28;20036;-77
2022/10/18 01:18:33;;;;;;;31.40;15.43;;;;;;;7.91;61.84;96665.38;5058822;28;20040;-77
2022/10/18 01:21:12;;;;;;;;;;;;;;;8.22;61.80;96736.56;5078128;28;20040;-76
2022/10/18 01:24:09;;;;;;;34.83;15.35;;;;;;;8.26;61.81;96731.63;5057213;28;19924;-77
2022/10/18 01:26:50;;;;;;;35.20;15.82;;;;;;;7.56;61.65;96634.25;5075582;28;20042;-77
2022/10/18 01:29:37;;;;;;;35.03;16.40;;;;;;;8.12;62.18;96728.34;5075763;28;20421;-77
2022/10/18 01:32:11;;;;;;;31.67;16.35;;;;;;;8.13;62.08;96725.47;5057082;28;20117;-77
2022/10/18 01:34:40;;;;;;;26.63;15.32;;;;;;;7.31;62.30;96593.91;5057144;28;20414;-77
2022/10/18 01:37:10;;;;;;;28.55;15.75;;;;;;;7.55;62.31;96640.53;5075995;28;20048;-77
2022/10/18 01:39:39;;;;;;;31.48;15.27;;;;;;;7.86;62.39;96696.94;5069075;28;20047;-77
2022/10/18 01:42:11;;;;;;;29.42;14.63;;;;;;;8.07;62.17;96722.91;5075430;28;20048;-77
2022/10/18 01:44:38;;;;;;;27.02;14.20;;;;;;;8.07;62.15;96720.28;5057225;28;20036;-77
2022/10/18 01:47:08;;;;;;;32.65;15.18;;;;;;;8.04;62.15;96728.63;5075123;28;20578;-77
2022/10/18 01:49:33;;;;;;;30.65;14.73;;;;;;;7.73;62.59;96682.00;5075714;28;20173;-77
2022/10/18 01:51:59;;;;;;;30.25;15.38;;;;;;;8.01;62.42;96715.88;5072296;28;20032;-77
2022/10/18 01:54:37;;;;;;;30.25;14.68;;;;;;;7.29;62.27;96611.78;5034335;28;20409;-77
2022/10/18 01:57:29;;;;;;;28.33;14.68;;;;;;;7.70;62.40;96683.25;5055669;28;20055;-77
2022/10/18 01:59:58;;;;;;;;;;;;;;;7.97;62.08;96722.59;5037879;28;20063;-78
2022/10/18 02:02:32;;;;;;;26.90;14.25;;;;;;;7.91;62.14;96712.94;5075014;28;20542;-78
2022/10/18 02:05:26;;;;;;;30.45;14.77;;;;;;;7.91;62.33;96712.94;5075248;28;20442;-78
2022/10/18 02:08:03;;;;;;;29.25;13.95;;;;;;;7.77;62.61;96712.25;5075590;28;20504;-78
2022/10/18 02:10:42;;;;;;;27.23;14.75;;;;;;;7.70;62.40;96690.38;5075640;28;20494;-78
2022/10/18 02:13:11;;;;;;;33.55;14.20;;;;;;;7.35;62.68;96637.31;5073638;28;20429;-78
2022/10/18 02:15:40;;;;;;;29.02;14.75;;;;;;;7.80;62.29;96711.81;5056773;28;20043;-78
2022/10/18 02:18:10;;;;;;;25.17;13.55;;;;;;;7.51;62.34;96662.31;5075559;28;20221;-78
2022/10/18 02:20:37;;;;;;;36.03;15.52;;;;;;;7.81;62.43;96707.34;5076087;28;20092;-77
2022/10/18 02:23:06;;;;;;;24.65;13.63;;;;;;;7.40;62.46;96649.88;5042695;28;163425;-78
2022/10/18 02:25:33;;;;;;;37.05;14.85;;;;;;;7.69;62.58;96694.84;5034336;28;20041;-78
2022/10/18 02:28:00;;;;;;;31.38;14.18;;;;;;;7.66;62.17;96684.72;5038972;28;20048;-78
2022/10/18 02:31:03;;;;;;;31.73;14.15;;;;;;;7.80;62.48;96703.06;5036011;28;20041;-78
2022/10/18 02:33:46;;;;;;;25.58;13.35;;;;;;;7.51;62.25;96649.13;5051008;28;20578;-78
2022/10/18 02:36:19;;;;;;;22.38;13.20;;;;;;;7.70;62.08;96683.25;5053829;28;20143;-78
2022/10/18 02:38:45;;;;;;;27.20;12.95;;;;;;;7.49;62.13;96636.16;5053608;28;20051;-78
2022/10/18 02:41:11;;;;;;;30.02;13.00;;;;;;;7.31;62.22;96622.94;5050052;28;20056;-78
2022/10/18 02:43:36;;;;;;;30.42;12.73;;;;;;;7.87;62.46;96709.09;5045515;28;20487;-78
2022/10/18 02:46:02;;;;;;;23.20;11.95;;;;;;;7.74;62.12;96692.38;5035624;28;20524;-78
2022/10/18 02:48:28;;;;;;;27.10;12.55;;;;;;;7.41;62.35;96644.34;5034247;28;20043;-78
2022/10/18 02:50:53;;;;;;;28.98;12.27;;;;;;;7.47;62.42;96658.53;5046567;28;20041;-78
2022/10/18 02:53:19;;;;;;;30.38;12.65;;;;;;;7.42;62.28;96650.44;5035076;28;20036;-78
2022/10/18 02:55:44;;;;;;;31.85;12.25;;;;;;;7.35;62.41;96637.31;5033545;28;20049;-78
2022/10/18 02:58:09;;;;;;;26.52;12.13;;;;;;;7.74;62.37;96717.97;5054913;28;20117;-78
2022/10/18 03:00:35;;;;;;;30.23;12.02;;;;;;;7.65;62.42;96719.25;5053439;28;20501;-78
2022/10/18 03:03:00;;;;;;;25.42;11.52;;;;;;;7.26;62.19;96644.69;5025864;28;20047;-78
2022/10/18 03:05:26;;;;;;;19.02;11.73;;;;;;;7.21;62.48;96636.63;5050382;28;20069;-78
2022/10/18 03:07:51;;;;;;;24.63;12.10;;;;;;;7.25;62.82;96660.72;5036718;28;20048;-78
2022/10/18 03:10:16;;;;;;;18.25;10.60;;;;;;;7.43;62.27;96694.28;5036043;28;20033;-78
2022/10/18 03:12:42;;;;;;;28.58;10.80;;;;;;;7.58;62.17;96711.41;5026127;28;20067;-78
2022/10/18 03:15:08;;;;;;;22.40;11.88;;;;;;;7.30;63.01;96684.66;5034800;28;20051;-78
2022/10/18 03:17:33;;;;;;;23.55;11.40;;;;;;;7.02;63.03;96648.13;5035150;28;20041;-78
2022/10/18 03:20:00;;;;;;;24.00;12.27;;;;;;;7.47;63.30;96706.03;5035226;28;20054;-78
2022/10/18 03:22:26;;;;;;;24.08;11.40;;;;;;;7.04;63.15;96664.56;5035273;28;20519;-78
2022/10/18 03:24:52;;;;;;;25.33;11.13;;;;;;;6.89;62.61;96620.03;5035112;28;20056;-78
2022/10/18 03:27:18;;;;;;;26.77;11.85;;;;;;;7.42;62.68;96704.03;5034765;28;20045;-79
2022/10/18 03:29:43;;;;;;;24.77;12.65;;;;;;;6.81;62.77;96603.66;5054112;28;20040;-78
2022/10/18 03:32:09;;;;;;;23.10;11.30;;;;;;;6.97;62.87;96632.16;5054466;28;20050;-78
2022/10/18 03:34:34;;;;;;;25.33;11.07;;;;;;;7.01;62.97;96638.63;5036832;28;20051;-78
2022/10/18 03:36:59;;;;;;;28.80;11.57;;;;;;;6.81;62.63;96603.66;5036158;28;20044;-78
2022/10/18 03:39:25;;;;;;;23.23;12.10;;;;;;;7.10;62.50;96649.69;5054880;28;20156;-78
2022/10/18 03:41:50;;;;;;;23.88;11.90;;;;;;;7.11;63.08;96660.03;5053863;28;20049;-78
2022/10/18 03:44:16;;;;;;;32.60;11.65;;;;;;;7.26;62.76;96708.00;5053566;28;20110;-78
2022/10/18 03:46:41;;;;;;;26.13;11.82;;;;;;;6.66;63.28;96611.91;5052092;28;20037;-78
2022/10/18 03:49:06;;;;;;;30.05;12.13;;;;;;;7.10;62.89;96687.44;5034795;28;20052;-78
2022/10/18 03:51:32;;;;;;;26.40;11.50;;;;;;;7.31;63.34;96718.75;5032540;28;20680;-78
2022/10/18 03:53:57;;;;;;;22.25;12.18;;;;;;;6.77;62.88;96632.31;5034942;28;20150;-78
2022/10/18 03:56:23;;;;;;;25.20;12.32;;;;;;;7.06;62.82;96691.53;5038036;28;20493;-78
2022/10/18 03:58:48;;;;;;;26.40;12.27;;;;;;;6.93;63.39;96678.44;5053788;28;20224;-78
2022/10/18 04:01:14;;;;;;;28.85;12.10;;;;;;;7.22;63.81;96727.13;5028873;28;20040;-79
2022/10/18 04:03:39;;;;;;;23.33;11.55;;;;;;;7.23;63.53;96716.38;5035893;28;20407;-78
2022/10/18 04:06:06;;;;;;;28.50;12.85;;;;;;;6.52;63.58;96640.19;5042139;28;20473;-78
2022/10/18 04:08:32;;;;;;;26.92;12.60;;;;;;;7.14;63.72;96716.84;5030816;28;20488;-79
2022/10/18 04:10:57;;;;;;;29.73;13.40;;;;;;;6.63;63.41;96636.06;5042121;28;20090;-78
2022/10/18 04:13:23;;;;;;;21.92;11.80;;;;;;;6.56;63.43;96624.75;5031172;28;20264;-78
2022/10/18 04:15:48;;;;;;;41.33;13.55;;;;;;;7.14;63.35;96717.66;5043272;28;20403;-78
2022/10/18 04:18:13;;;;;;;26.95;13.13;;;;;;;6.70;63.66;96652.66;5022029;28;20085;-79
2022/10/18 04:20:39;;;;;;;30.40;12.73;;;;;;;6.56;63.63;96637.94;5049798;28;20032;-79
2022/10/18 04:23:04;;;;;;;32.30;12.48;;;;;;;6.45;63.50;96617.50;5060948;28;20147;-78
2022/10/18 04:25:29;;;;;;;28.02;12.98;;;;;;;6.74;63.99;96659.09;5055731;28;20042;-78
2022/10/18 04:27:55;;;;;;;31.13;13.30;;;;;;;7.09;63.53;96716.69;5069519;28;20093;-78
2022/10/18 04:30:20;;;;;;;33.55;12.95;;;;;;;6.53;63.66;96622.53;5062927;28;20046;-77
2022/10/18 04:32:46;;;;;;;31.65;13.77;;;;;;;6.59;63.77;96635.66;5060023;28;20040;-78
2022/10/18 04:35:11;;;;;;;33.42;13.50;;;;;;;7.13;63.39;96717.88;5070395;28;20622;-77
2022/10/18 04:37:37;;;;;;;30.98;13.68;;;;;;;7.10;63.58;96716.44;5065267;28;20105;-77
2022/10/18 04:40:02;;;;;;;30.65;13.57;;;;;;;7.08;63.89;96713.25;5067001;28;20133;-78
2022/10/18 04:42:28;;;;;;;28.98;15.10;;;;;;;6.61;63.82;96635.47;5062886;28;20047;-78
2022/10/18 04:44:53;;;;;;;33.58;13.77;;;;;;;7.09;64.10;96701.69;5045945;28;20055;-77
2022/10/18 04:47:19;;;;;;;37.05;14.98;;;;;;;7.01;63.99;96704.56;5065258;28;20037;-78
2022/10/18 04:49:44;;;;;;;78.30;19.15;;;;;;;6.75;64.54;96654.63;5046014;28;20559;-78
2022/10/18 04:52:10;;;;;;;55.38;16.50;;;;;;;7.09;64.21;96706.13;5070280;28;20040;-78
2022/10/18 04:54:36;;;;;;;29.45;14.93;;;;;;;7.07;63.52;96697.63;5064263;28;20040;-78
2022/10/18 04:57:01;;;;;;;42.17;15.85;;;;;;;6.67;63.56;96641.69;5069003;28;20106;-79
2022/10/18 04:59:27;;;;;;;34.35;15.57;;;;;;;7.09;64.05;96703.50;5069082;28;20472;-78
2022/10/18 05:01:52;;;;;;;40.15;15.73;;;;;;;6.95;63.68;96671.09;5063436;28;20463;-78
2022/10/18 05:04:17;;;;;;;56.47;16.13;;;;;;;6.96;63.33;96667.47;5047276;28;20273;-82
2022/10/18 05:06:43;;;;;;;36.30;15.93;;;;;;;6.37;62.96;96580.88;5045850;28;20403;-78
2022/10/18 05:09:08;;;;;;;41.47;15.68;;;;;;;6.82;62.91;96648.28;5063509;28;20144;-80
2022/10/18 05:11:34;;;;;;;35.35;15.98;;;;;;;6.09;62.60;96524.13;5044383;28;20032;-77
2022/10/18 05:13:59;;;;;;;36.88;16.42;;;;;;;7.18;63.35;96700.38;5053139;28;20546;-80
2022/10/18 05:16:27;;;;;;;48.97;17.95;;;;;;;7.12;62.92;96685.41;5057810;28;20088;-79
2022/10/18 05:18:52;;;;;;;35.72;16.70;;;;;;;6.70;62.84;96630.75;5018572;28;21264;-79
2022/10/18 05:21:18;;;;;;;42.70;18.05;;;;;;;6.98;63.03;96654.88;5047453;28;20040;-78
2022/10/18 05:23:43;;;;;;;49.55;19.00;;;;;;;6.97;63.02;96672.53;5058919;28;20090;-80
2022/10/18 05:26:08;;;;;;;49.22;18.00;;;;;;;7.17;62.07;96704.03;5057345;28;20039;-78
2022/10/18 05:28:34;;;;;;;50.58;17.08;;;;;;;6.98;62.11;96658.31;5040602;28;20124;-78
2022/10/18 05:31:04;;;;;;;44.55;18.40;;;;;;;7.35;61.95;96705.91;5061686;28;20078;-78
2022/10/18 05:33:31;;;;;;;47.95;17.77;;;;;;;7.08;62.41;96655.22;5062296;28;20535;-78
2022/10/18 05:35:56;;;;;;;52.80;18.35;;;;;;;7.39;62.27;96701.84;5061583;28;20203;-78
2022/10/18 05:38:22;;;;;;;39.38;18.50;;;;;;;6.77;62.08;96610.41;5060586;28;20152;-78
2022/10/18 05:40:48;;;;;;;48.50;18.02;;;;;;;6.99;61.82;96635.38;5060971;28;20397;-78
2022/10/18 05:43:13;;;;;;;45.97;17.50;;;;;;;7.05;61.45;96649.53;5041884;28;20048;-78
2022/10/18 05:45:39;;;;;;;51.28;16.95;;;;;;;7.20;61.32;96666.66;5038719;28;20043;-78
2022/10/18 05:48:06;;;;;;;52.00;19.23;;;;;;;7.39;61.38;96695.75;5046614;28;20043;-79
2022/10/18 05:50:32;;;;;;;60.17;19.65;;;;;;;7.09;61.37;96634.91;5056013;28;20490;-78
2022/10/18 05:52:57;;;;;;;44.90;17.40;;;;;;;7.64;60.72;96705.25;5056956;28;20094;-79
2022/10/18 05:55:23;;;;;;;39.55;17.02;;;;;;;7.49;60.86;96707.41;5043987;28;20052;-79
2022/10/18 05:57:49;;;;;;;49.78;19.73;;;;;;;7.20;60.51;96661.38;5043479;28;20044;-79
2022/10/18 06:00:15;;;;;;;44.15;17.75;;;;;;;7.54;60.60;96707.59;5062597;28;20048;-79
2022/10/18 06:02:41;;;;;;;53.42;18.75;;;;;;;6.90;60.91;96626.94;5040125;28;20048;-78
2022/10/18 06:05:06;;;;;;;38.00;18.13;;;;;;;7.09;60.20;96641.00;5037560;28;20051;-78
2022/10/18 06:07:32;;;;;;;47.58;17.48;;;;;;;7.30;60.72;96677.56;5056335;28;20403;-82
2022/10/18 06:09:57;;;;;;;38.85;18.65;;;;;;;7.41;60.42;96698.97;5056653;28;20036;-80
2022/10/18 06:12:22;;;;;;;41.55;18.45;;;;;;;7.18;60.53;96631.75;5052727;28;20054;-78
2022/10/18 06:14:48;;;;;;;41.28;18.42;;;;;;;7.61;60.43;96707.53;5033021;28;20163;-79
2022/10/18 06:17:13;;;;;;;39.50;18.77;;;;;;;7.41;60.26;96680.47;5037326;28;20099;-80
2022/10/18 06:19:39;;;;;;;45.15;19.35;;;;;;;7.69;60.61;96712.53;5042811;28;20040;-79
2022/10/18 06:22:04;;;;;;;48.97;21.63;;;;;;;7.08;60.47;96604.28;5055701;28;20485;-79
2022/10/18 06:24:30;;;;;;;59.97;21.63;;;;;;;7.48;60.52;96650.38;5060217;28;20438;-78
2022/10/18 06:26:56;;;;;;;43.30;20.73;;;;;;;7.92;60.54;96715.34;5063766;28;20075;-78
2022/10/18 06:29:21;;;;;;;42.17;19.88;;;;;;;7.50;60.86;96647.50;5039791;28;20497;-77
2022/10/18 06:31:47;;;;;;;37.00;18.17;;;;;;;7.86;60.74;96691.66;5056356;28;20032;-78
2022/10/18 06:34:12;;;;;;;50.78;20.38;;;;;;;8.07;59.93;96705.22;5059428;28;20028;-78
2022/10/18 06:36:38;;;;;;;36.80;19.92;;;;;;;7.92;60.63;96699.50;5059801;28;20518;-77
2022/10/18 06:39:03;;;;;;;44.55;19.50;;;;;;;7.88;60.76;96685.09;5060493;28;20413;-78
2022/10/18 06:41:28;;;;;;;45.20;20.10;;;;;;;7.70;60.63;96642.84;5036443;28;20039;-79
2022/10/18 06:43:56;;;;;;;53.97;21.80;;;;;;;7.84;60.68;96648.81;5058063;28;20579;-78
2022/10/18 06:46:22;;;;;;;36.90;19.40;;;;;;;8.29;60.36;96704.78;5038309;28;20058;-77
2022/10/18 06:48:48;;;;;;;38.65;18.65;;;;;;;7.87;60.15;96635.13;5054259;28;20817;-78
2022/10/18 06:51:14;;;;;;;44.60;20.40;;;;;;;8.40;60.01;96691.63;5051712;28;20032;-77
2022/10/18 06:53:40;;;;;;;35.17;18.05;;;;;;;8.47;59.79;96705.59;5032572;28;20556;-78
2022/10/18 06:56:14;;;;;;;34.35;16.45;;;;;;;8.14;59.56;96642.53;5063578;28;20189;-80
2022/10/18 06:58:39;;;;;;;34.33;15.85;;;;;;;8.18;59.91;96636.78;5035755;28;20143;-78
2022/10/18 07:01:11;;;;;;;50.05;17.92;;;;;;;8.36;59.59;96674.63;5040995;28;20032;-83
2022/10/18 07:03:36;;;;;;;39.90;18.30;;;;;;;7.85;59.45;96598.41;5058409;28;20120;-81
2022/10/18 07:06:04;;;;;;;35.10;19.40;;;;;;;8.57;59.52;96693.66;5060054;28;20036;-79
2022/10/18 07:08:31;;;;;;;43.92;21.55;;;;;;;8.49;59.72;96679.72;5055941;28;20079;-83
2022/10/18 07:10:56;;;;;;;42.05;23.27;;;;;;;8.57;59.27;96694.47;5053327;28;20032;-78
2022/10/18 07:13:24;;;;;;;54.15;23.10;;;;;;;8.66;59.01;96695.78;5048593;28;20716;-77
2022/10/18 07:16:09;;;;;;;48.42;20.73;;;;;;;8.22;59.37;96638.78;5057703;28;20125;-79
2022/10/18 07:18:36;;;;;;;38.28;17.42;;;;;;;8.45;59.07;96689.16;5054584;28;20040;-77
2022/10/18 07:21:08;;;;;;;43.97;16.65;;;;;;;8.19;58.60;96643.69;5060538;28;20049;-78
2022/10/18 07:23:40;;;;;;;38.13;17.25;;;;;;;8.58;58.36;96680.22;5053125;28;20439;-78
2022/10/18 07:26:15;;;;;;;42.92;19.30;;;;;;;8.77;58.14;96695.00;5056510;28;20405;-78
2022/10/18 07:28:43;;;;;;;49.03;21.77;;;;;;;8.67;58.87;96701.88;5036422;28;20044;-77
2022/10/18 07:31:11;;;;;;;43.10;21.05;;;;;;;7.92;58.70;96593.84;5059988;28;20036;-79
2022/10/18 07:33:37;;;;;;;58.00;23.63;;;;;;;8.57;58.94;96677.81;5055353;28;20291;-78
2022/10/18 07:36:05;;;;;;;45.50;21.83;;;;;;;8.61;58.74;96685.09;5059564;28;20057;-77
2022/10/18 07:38:31;;;;;;;46.15;21.65;;;;;;;8.40;58.11;96630.84;5059081;28;20153;-77
2022/10/18 07:41:00;;;;;;;46.90;22.15;;;;;;;8.80;58.31;96676.06;5055700;28;20040;-77
2022/10/18 07:43:26;;;;;;;47.97;24.00;;;;;;;8.77;58.71;96681.00;5056543;28;20147;-77
2022/10/18 07:45:56;;;;;;;54.28;22.25;;;;;;;8.88;58.89;96680.22;5042926;28;20411;-78
2022/10/18 07:48:23;;;;;;;46.30;21.38;;;;;;;8.70;58.30;96620.25;5037043;28;20071;-78
2022/10/18 07:50:48;;;;;;;57.40;22.13;;;;;;;8.68;58.13;96614.38;5039035;28;20447;-78
2022/10/18 07:53:14;;;;;;;48.33;22.60;;;;;;;9.02;58.77;96673.69;5056247;28;20044;-80
2022/10/18 07:55:39;;;;;;;42.25;20.67;;;;;;;9.09;58.63;96668.28;5059811;28;20468;-79
2022/10/18 07:58:05;;;;;;;50.63;22.52;;;;;;;8.96;58.66;96637.56;5060210;28;20096;-79
2022/10/18 08:00:30;;;;;;;47.20;21.85;;;;;;;9.15;58.29;96662.13;5038366;28;20066;-78
2022/10/18 08:02:57;;;;;;;41.50;21.00;;;;;;;9.11;58.36;96660.94;5024807;28;20036;-78
2022/10/18 08:05:23;;;;;;;50.47;22.33;;;;;;;8.68;58.53;96569.44;5058155;28;20652;-78
2022/10/18 08:07:49;;;;;;;40.80;21.63;;;;;;;9.04;58.40;96602.03;5041282;28;20742;-79
2022/10/18 08:10:14;;;;;;;49.22;22.90;;;;;;;8.94;58.34;96602.56;5056937;28;20124;-79
2022/10/18 08:12:40;;;;;;;44.47;20.38;;;;;;;9.01;58.50;96616.50;5057861;28;20465;-79
2022/10/18 08:15:06;;;;;;;52.53;21.05;;;;;;;8.70;58.05;96554.13;5043311;28;20506;-78
2022/10/18 08:17:32;;;;;;;43.58;17.88;;;;;;;9.33;58.59;96627.59;5063381;28;20036;-77
2022/10/18 08:19:58;;;;;;;35.80;15.55;;;;;;;8.96;58.41;96558.19;5056313;28;20421;-77
2022/10/18 08:22:23;;;;;;;33.50;17.05;;;;;;;9.55;58.64;96638.41;5060008;28;20042;-77
2022/10/18 08:24:49;;;;;;;33.97;16.33;;;;;;;9.13;58.50;96548.53;5064287;28;20044;-79
2022/10/18 08:27:14;;;;;;;34.05;16.85;;;;;;;9.03;58.11;96531.59;5022946;28;20137;-79
2022/10/18 08:29:40;;;;;;;41.92;17.30;;;;;;;9.80;58.10;96625.72;5046589;28;20653;-79
2022/10/18 08:32:06;;;;;;;36.47;15.82;;;;;;;9.86;57.76;96629.25;5065067;28;20213;-85
2022/10/18 08:34:34;;;;;;;35.95;16.83;;;;;;;9.78;58.01;96619.03;5063781;28;20562;-78
2022/10/18 08:37:01;;;;;;;28.65;14.93;;;;;;;9.31;57.85;96520.31;5058738;28;20032;-78
2022/10/18 08:39:27;;;;;;;41.63;16.15;;;;;;;9.51;58.32;96537.44;5050065;28;20626;-79
2022/10/18 08:42:19;;;;;;;41.42;17.52;;;;;;;10.14;57.44;96608.13;5060221;28;20097;-77
2022/10/18 08:44:47;;;;;;;34.30;16.75;;;;;;;10.21;57.18;96603.53;5012760;28;20990;-79
2022/10/18 08:47:20;;;;;;;33.17;16.02;;;;;;;9.87;57.23;96530.19;5047219;28;20577;-78
2022/10/18 08:49:50;;;;;;;41.70;16.48;;;;;;;10.00;56.90;96532.56;5063257;28;20490;-76
2022/10/18 08:52:35;;;;;;;35.42;16.83;;;;;;;10.44;56.52;96581.41;5039904;28;20127;-79
2022/10/18 08:55:35;;;;;;;38.70;16.10;;;;;;;10.43;56.45;96587.75;5063739;28;20524;-81
2022/10/18 08:58:02;;;;;;;35.42;17.42;;;;;;;10.49;57.34;96575.38;5065353;28;20549;-79
2022/10/18 09:00:33;;;;;;;41.90;18.60;;;;;;;10.59;56.83;96570.25;5041645;28;20036;-80
2022/10/18 09:03:36;;;;;;;36.55;17.17;;;;;;;10.61;57.39;96566.31;5042551;28;20147;-78
2022/10/18 09:06:02;;;;;;;39.78;15.38;;;;;;;10.73;56.98;96568.91;5061650;28;20036;-78
2022/10/18 09:08:39;;;;;;;35.90;17.25;;;;;;;10.80;56.19;96566.88;5066742;28;20036;-80
2022/10/18 09:11:13;;;;;;;30.02;15.27;;;;;;;10.91;56.92;96573.19;5065939;28;20399;-79
2022/10/18 09:13:50;;;;;;;31.88;14.10;;;;;;;11.01;56.92;96573.31;5068721;28;20502;-79
2022/10/18 09:16:23;;;;;;;34.45;14.82;;;;;;;10.95;56.07;96550.41;5062827;28;20040;-80
2022/10/18 09:18:58;;;;;;;34.88;14.45;;;;;;;10.41;56.12;96451.91;5063241;28;20036;-79
2022/10/18 09:21:56;;;;;;;34.25;15.13;;;;;;;11.28;55.67;96570.81;5060057;28;20044;-80
2022/10/18 09:24:29;;;;;;;28.02;13.45;;;;;;;10.81;55.36;96489.69;5056779;28;20059;-78
2022/10/18 09:27:14;;;;;;;31.00;12.70;;;;;;;11.01;55.82;96489.19;5066573;28;20348;-79
2022/10/18 09:29:47;;;;;;;30.48;13.52;;;;;;;11.51;55.78;96557.34;5047128;28;20666;-79
2022/10/18 09:32:48;;;;;;;23.40;11.57;;;;;;;11.49;55.41;96533.66;5039282;28;20970;-80
2022/10/18 09:35:22;;;;;;;27.33;12.13;;;;;;;11.74;56.01;96545.66;5043603;28;20125;-78
2022/10/18 09:37:49;;;;;;;27.83;10.43;;;;;;;11.32;56.58;96466.50;5058994;28;20133;-79
2022/10/18 09:40:18;;;;;;;17.33;9.18;;;;;;;11.89;56.29;96536.06;5057678;28;20472;-82
2022/10/18 09:42:57;;;;;;;20.70;8.98;;;;;;;11.77;55.85;96497.34;5058751;28;20598;-79
2022/10/18 09:45:38;;;;;;;22.20;10.52;;;;;;;12.07;56.09;96540.22;5061971;28;20070;-78
2022/10/18 09:48:13;;;;;;;25.38;11.10;;;;;;;12.18;56.44;96528.66;5061136;28;20051;-80
2022/10/18 09:50:43;;;;;;;19.92;9.88;;;;;;;12.52;55.21;96448.59;5044337;28;20036;-80
2022/10/18 09:53:10;;;;;;;30.58;9.25;;;;;;;14.38;52.42;96527.91;5065405;28;20147;-79
2022/10/18 09:55:59;;;;;;;20.08;8.48;;;;;;;15.40;48.08;96475.25;5062963;28;20172;-80
2022/10/18 09:58:36;;;;;;;19.73;7.90;;;;;;;16.46;44.40;96425.72;5044758;28;20489;-80
2022/10/18 10:01:01;;;;;;;17.23;6.80;;;;;;;18.34;41.50;96460.09;5063637;28;20040;-79
2022/10/18 10:03:27;;;;;;;16.42;6.22;;;;;;;19.69;38.53;96476.06;5043892;28;20071;-79
2022/10/18 10:06:26;;;;;;;14.75;5.88;;;;;;;21.19;35.06;96493.75;5058427;28;20146;-79
2022/10/18 10:08:59;;;;;;;16.73;5.10;;;;;;;22.21;32.75;96476.31;5021805;28;20095;-80
2022/10/18 10:11:31;;;;;;;12.07;4.32;;;;;;;22.53;31.43;96417.50;5059155;28;20036;-79
2022/10/18 10:14:07;;;;;;;11.98;4.10;;;;;;;23.77;29.93;96472.28;5059512;28;20105;-79
2022/10/18 10:16:33;;;;;;;8.27;3.80;;;;;;;23.50;28.44;96386.06;5057708;28;20139;-80
2022/10/18 10:19:00;;;;;;;8.88;4.00;;;;;;;24.66;28.01;96464.06;5047276;28;20573;-80
2022/10/18 10:21:26;;;;;;;14.70;4.38;;;;;;;24.30;28.16;96327.22;5022479;28;20456;-84
2022/10/18 10:23:55;;;;;;;14.98;4.40;;;;;;;25.42;26.64;96450.88;5036701;28;20171;-81
2022/10/18 10:26:31;;;;;;;18.83;4.68;;;;;;;25.59;26.34;96420.00;5041944;28;20228;-83
2022/10/18 10:28:57;;;;;;;7.05;3.33;;;;;;;25.85;25.87;96419.69;5027566;28;20055;-80
2022/10/18 10:31:31;;;;;;;9.90;3.58;;;;;;;25.77;24.45;96432.25;5048508;28;20169;-79
2022/10/18 10:34:13;;;;;;;6.75;3.30;;;;;;;25.68;23.83;96423.41;5032369;28;20619;-79
2022/10/18 10:36:54;;;;;;;11.98;3.72;;;;;;;25.84;24.33;96420.81;5051446;28;20044;-80
2022/10/18 10:39:22;;;;;;;15.98;4.07;;;;;;;25.79;24.43;96383.78;5043187;28;20276;-80
2022/10/18 10:41:59;;;;;;;7.85;3.63;;;;;;;26.06;24.61;96396.66;5043266;28;20041;-80
2022/10/18 10:44:31;;;;;;;10.10;3.70;;;;;;;26.04;24.04;96400.84;5040966;28;20044;-81
2022/10/18 10:46:58;;;;;;;8.25;3.20;;;;;;;26.04;23.76;96398.13;5057121;28;20043;-84
2022/10/18 10:49:29;;;;;;;13.30;4.20;;;;;;;25.28;23.76;96293.72;5032909;28;20135;-81
2022/10/18 10:52:02;;;;;;;8.65;3.33;;;;;;;25.94;23.93;96387.75;5048230;28;20557;-80
2022/10/18 10:54:35;;;;;;;8.60;4.15;;;;;;;25.76;23.06;96381.75;5041225;28;20052;-81
2022/10/18 10:57:26;;;;;;;12.27;3.75;;;;;;;25.90;23.38;96379.47;5050389;28;20076;-80
2022/10/18 10:59:55;;;;;;;14.38;4.82;;;;;;;25.67;23.68;96353.91;5056946;28;20056;-82
2022/10/18 11:02:28;;;;;;;12.02;4.38;;;;;;;25.45;23.48;96374.16;5044992;28;20044;-82
2022/10/18 11:04:55;;;;;;;9.32;3.17;;;;;;;25.83;22.65;96368.38;5060249;28;20048;-81
2022/10/18 11:07:39;;;;;;;13.95;3.45;;;;;;;25.66;22.39;96369.41;5038720;28;20146;-81
2022/10/18 11:10:11;;;;;;;8.65;3.80;;;;;;;25.47;23.27;96369.19;5069225;28;20044;-83
2022/10/18 11:13:01;;;;;;;11.05;3.60;;;;;;;25.58;23.64;96361.34;5053445;28;20092;-80
2022/10/18 11:15:27;;;;;;;6.20;3.20;;;;;;;25.41;22.10;96365.09;5057081;28;20163;-81
2022/10/18 11:18:15;;;;;;;8.68;3.55;;;;;;;25.34;22.71;96354.00;5053236;28;20320;-82
2022/10/18 11:20:47;;;;;;;15.63;5.13;;;;;;;25.44;22.72;96323.69;5039952;28;20055;-81
2022/10/18 11:23:16;;;;;;;;;;;;;;;25.49;21.64;96338.94;5036620;28;20052;-80
2022/10/18 11:26:04;;;;;;;5.13;2.58;;;;;;;25.24;22.64;96313.75;5014282;28;20719;-81
2022/10/18 11:28:30;;;;;;;9.77;2.90;;;;;;;25.65;22.09;96335.22;5028797;28;20079;-80
2022/10/18 11:31:04;;;;;;;11.77;2.60;;;;;;;25.03;21.48;96235.13;5028668;28;20497;-80
2022/10/18 11:34:05;;;;;;;10.15;3.10;;;;;;;25.54;21.30;96317.00;5016241;28;20040;-80
2022/10/18 11:36:55;;;;;;;4.68;2.70;;;;;;;25.90;21.00;96316.97;5041074;28;20104;-79
2022/10/18 11:39:56;;;;;;;8.65;2.78;;;;;;;25.83;20.04;96288.78;5009165;28;20122;-80